Hong Kong, Hong Kong

04:20 AM HKT on September 24, 2014 (GMT +0800)
Tai O, Lantau Island | Change Station
CLOSE
Current Station
Personal Weather Stations
Location: Hong Kong, HKSAR
Elevation: 50 ft
Nearby Weather Stations

Elev 50 ft 22.25 °N, 113.87 °E | Updated 4 minutes ago

Partly Cloudy
Mendung Sebagian
77.0 °F
Feels Like 78 °F
N
0.0
Angin Variable Angin from Baratdaya
Gusts 1.0 mph

Siang Ini
High -- | Low -- °F
--% Chance of Precip.
Yesterday
High -- | Low -- °F
Precip. -- Inch
6:13 AM 6:19 PM
Waning Crescent, 0% visible
Tekanan 29.83 Inch
Jarak Pandang 6.2 Mil
Awan Few 2500 ft
Ideks Panas 78 °F
Titik Embun 74 °F
Kelembaban 91%
Rainfall 0.00 Inch
Snow Depth Not available.
UV 0.0 out of 12
Pollen Not available.
Air Quality Not available.
Flu Activity Not available.
METAR VHHH 232000Z 24004KT 9999 FEW025 28/23 Q1010 NOSIG

More Conditions Fewer Conditions

Tekanan 29.83 Inch
Jarak Pandang 6.2 Mil
Awan Few 2500 ft
Ideks Panas 78 °F
Titik Embun 74 °F
Kelembaban 91%
Rainfall 0.00 Inch
Snow Depth Not available.
UV 0.0 out of 12
Pollen Not available.
Air Quality Not available.
Flu Activity Not available.
METAR VHHH 232000Z 24004KT 9999 FEW025 28/23 Q1010 NOSIG

More Conditions Fewer Conditions

10-Day Weather Forecast

Almanac

Astronomi

Sep. 24, 2014 Rise Set
Actual Time 6:13 AM HKT 6:19 PM HKT
Civil Twilight 5:51 AM HKT 6:41 PM HKT
Nautical Twilight 5:25 AM HKT 7:07 PM HKT
Astronomical Twilight 4:59 AM HKT 7:33 PM HKT
Moon 6:00 AM HKT (9/24) 6:16 PM HKT (9/24)
Length Of Visible Light 12h 50m
Lama Satu Hari
12h 05m
Tomorrow will be 1m 18s shorter.
Waning Crescent, 0% of the Moon is Illuminated
Sep 23
Waning Crescent
Sep 24
New
Oct 1
Triwulan Pertama
Oct 8
Bulan Purnama
Oct 15
Kuartil Terakhir

Yesterday's Extremes

Country Highs Country Lows

Community

WunderPhotos

Upload Photos

1,755,787 photos uploaded!

WunderBlogs® & News

By Dr. Jeff Masters
Director of Meteorology, Weather Underground
By Kari Strenfel
Meteorologist, Weather Underground
By Christopher C. Burt
Weather Historian, Weather Underground
September 23, 2014
September 23, 2014
September 23, 2014

Nearby

Snow Depth

Not available.

Earthquake Activity

City Distance Mag. Time & Date
No recent earthquake activity has been reported nearby.
Minimum magnitude displayed is 2.5.

Coastal Water Temperatures

Lokasi Temperatur
No Stations Reporting

Nearby Weather Stations